Pagrindinis puslapis
METAR-TAF:

METAR-TAF

Oro uostai :

Maršalo Salų tarptautinis oro uostas

Madžūras, Maršalo salos

platuma: 07-04N, ilguma: 171-17E, Aukštis: 2 m

Dabartinis oras

Ataskaita buvo paskelbta 17 valandos ir 15 minutes, ne 22:55 UTC
Vėjas 3 kt nuo kintamojo kryptimis
Temperatūra 30°C
Drėgmė 75%
Slėgis 1012 hPa
Matomumas: 24.1 km
Mažai debesys ne aukštis 1500 ft
Išsisklaidę debesys ne aukštis 5000 ft
Su prošvaistėmis ne aukštis 30000 ft

METAR: PKMJ 022255Z VRB03KT 15SM FEW015 SCT050 BKN300 30/25 A2989 RMK LAST

Laikas: 04:10 (16:10 UTC)

Prognozė

Ataskaita buvo paskelbta 4 valandos ir 50 minutes, ne 11:20 UTC
Prognozė galioja nuo 03 metu 12 UTC su 04 metu 12 UTC
Vėjas 7 kt iš Rytų/Šiaurės Rytų
Matomumas: 10 km
Išsisklaidę debesys ne aukštis 1500 ft
Išsisklaidę debesys ne aukštis 5000 ft
Su prošvaistėmis ne aukštis 10000 ft
Liūtis kaimynystėje

TAF: PKMJ 031120Z 0312/0412 06007KT P6SM VCSH SCT015 SCT050 BKN100

Orai ataskaitas ir orų prognozės (METAR, TAF).

turimą stotys yra geltonos ir raudonos taškus žemėlapyje.

Perkelti pele per norėdami pamatyti stoties vardą.

Tada spustelėkite, norėdami matyti oro stebėjimo ir prognozės.

Norėdami pakeisti žemėlapį: spustelėkite ant žalios mygtukų su juodo kryžiaus žemyn,; žalią mygtuką su brūkšneliu, jei norite nutolinti; arba žalių rodyklių gretimoms žemėlapius.


METAR-TAF: